Time;durP1;ratioP1;P1;durP2;ratioP2;P2;SDS_P1;SDS_P2;PMS_P1;PMS_P2;Temp;Humidity;BMP_temperature;BMP_pressure;BME280_temperature;BME280_humidity;BME280_pressure;Samples;Min_cycle;Max_cycle;Signal;HPM_P1;HPM_P2
2022/12/14 00:00:40;;;;;;;27.23;15.40;;;3.30;74.90;;;;;;4974732;28;20029;-17
2022/12/14 00:03:07;;;;;;;22.10;13.00;;;3.30;75.00;;;;;;4974465;28;20034;-16
2022/12/14 00:05:33;;;;;;;20.80;12.18;;;3.30;75.20;;;;;;4974056;28;20042;-15
2022/12/14 00:07:59;;;;;;;28.42;15.25;;;3.40;75.30;;;;;;4974221;28;20062;-16
2022/12/14 00:10:25;;;;;;;20.17;12.23;;;3.40;75.50;;;;;;4974630;28;20035;-17
2022/12/14 00:12:50;;;;;;;27.38;16.35;;;3.40;75.50;;;;;;4973971;28;20387;-16
2022/12/14 00:15:16;;;;;;;27.42;15.57;;;3.40;75.60;;;;;;4974472;28;20019;-16
2022/12/14 00:17:42;;;;;;;26.40;15.25;;;3.30;75.70;;;;;;4973694;28;20037;-16
2022/12/14 00:20:08;;;;;;;28.95;16.70;;;3.30;75.80;;;;;;4974003;28;20027;-16
2022/12/14 00:22:34;;;;;;;30.15;18.10;;;3.30;76.20;;;;;;4974140;28;20041;-16
2022/12/14 00:25:01;;;;;;;28.65;16.40;;;3.30;76.50;;;;;;4972873;28;20043;-16
2022/12/14 00:27:27;;;;;;;29.90;16.88;;;3.30;76.30;;;;;;4973897;28;20553;-16
2022/12/14 00:29:53;;;;;;;29.08;16.63;;;3.20;76.10;;;;;;4973969;28;20031;-16
2022/12/14 00:32:19;;;;;;;27.83;15.02;;;3.20;76.00;;;;;;4973998;28;20045;-17
2022/12/14 00:34:45;;;;;;;32.15;17.40;;;3.20;75.90;;;;;;4973882;28;20478;-16
2022/12/14 00:37:11;;;;;;;22.15;12.23;;;3.20;75.80;;;;;;4974153;28;20042;-17
2022/12/14 00:39:37;;;;;;;31.48;17.40;;;3.20;75.80;;;;;;4973839;28;20078;-16
2022/12/14 00:42:03;;;;;;;31.48;18.00;;;3.20;75.80;;;;;;4973849;28;20027;-17
2022/12/14 00:44:29;;;;;;;31.92;17.15;;;3.20;75.80;;;;;;4974099;28;20097;-17
2022/12/14 00:46:54;;;;;;;29.23;17.73;;;3.30;75.90;;;;;;4973655;28;20059;-17
2022/12/14 00:49:21;;;;;;;26.20;14.93;;;3.20;75.90;;;;;;4974047;28;20030;-17
2022/12/14 00:51:46;;;;;;;25.40;15.90;;;3.30;75.80;;;;;;4974221;28;20132;-14
2022/12/14 00:54:12;;;;;;;27.08;16.98;;;3.30;75.90;;;;;;4974042;28;20552;-14
2022/12/14 00:56:38;;;;;;;23.45;15.27;;;3.30;75.80;;;;;;4974037;28;20414;-14
2022/12/14 00:59:04;;;;;;;28.63;16.13;;;3.30;75.80;;;;;;4973467;28;20434;-13
2022/12/14 01:01:29;;;;;;;27.98;14.65;;;3.30;75.80;;;;;;4973708;28;20026;-17
2022/12/14 01:04:18;;;;;;;36.47;19.20;;;3.30;75.70;;;;;;4973633;28;20150;-13
2022/12/14 01:06:43;;;;;;;24.48;14.85;;;3.40;75.60;;;;;;4973256;28;20050;-16
2022/12/14 01:09:09;;;;;;;34.38;18.40;;;3.40;75.60;;;;;;4973281;28;20026;-16
2022/12/14 01:11:35;;;;;;;28.77;17.33;;;3.40;75.70;;;;;;4973651;28;20027;-15
2022/12/14 01:14:01;;;;;;;30.17;16.50;;;3.40;75.60;;;;;;4972299;28;20031;-17
2022/12/14 01:16:27;;;;;;;26.02;16.40;;;3.40;75.60;;;;;;4973559;28;20027;-16
2022/12/14 01:18:53;;;;;;;28.25;15.68;;;3.50;75.60;;;;;;4973458;28;20035;-17
2022/12/14 01:21:22;;;;;;;26.90;16.05;;;3.50;75.60;;;;;;4972178;28;20031;-16
2022/12/14 01:23:52;;;;;;;28.52;16.15;;;3.50;75.70;;;;;;4973760;28;20030;-16
2022/12/14 01:26:18;;;;;;;25.40;14.88;;;3.50;75.60;;;;;;4972276;28;20031;-17
2022/12/14 01:28:46;;;;;;;25.40;14.20;;;3.50;75.50;;;;;;4973389;28;20023;-16
2022/12/14 01:31:17;;;;;;;25.40;13.98;;;3.50;75.60;;;;;;4976438;28;20030;-16
2022/12/14 01:33:44;;;;;;;23.58;15.32;;;3.60;75.70;;;;;;4975875;28;20022;-17
2022/12/14 01:36:15;;;;;;;24.98;13.25;;;3.60;75.80;;;;;;4977256;28;20031;-17
2022/12/14 01:38:41;;;;;;;29.77;16.90;;;3.60;75.70;;;;;;4976835;28;20029;-14
2022/12/14 01:41:16;;;;;;;27.17;15.77;;;3.60;75.60;;;;;;4976773;28;20026;-16
2022/12/14 01:43:51;;;;;;;29.25;15.73;;;3.60;75.70;;;;;;4976703;28;20038;-18
2022/12/14 01:46:36;;;;;;;24.92;14.50;;;3.60;75.60;;;;;;4976902;28;20102;-15
2022/12/14 01:49:15;;;;;;;24.27;13.85;;;3.60;75.70;;;;;;4976584;28;20479;-16
2022/12/14 01:51:45;;;;;;;27.98;14.77;;;3.60;75.70;;;;;;4976663;28;20034;-17
2022/12/14 01:54:13;;;;;;;27.08;14.82;;;3.60;75.60;;;;;;4976889;28;20042;-16
2022/12/14 01:56:43;;;;;;;31.15;15.13;;;3.60;75.60;;;;;;4976948;28;20018;-17
2022/12/14 01:59:17;;;;;;;25.33;14.45;;;3.70;75.60;;;;;;4976630;28;20105;-16
2022/12/14 02:01:44;;;;;;;28.30;16.35;;;3.70;75.50;;;;;;4976499;28;20034;-16
2022/12/14 02:04:12;;;;;;;25.27;15.40;;;3.70;75.50;;;;;;4976343;28;20113;-16
2022/12/14 02:06:41;;;;;;;31.33;17.65;;;3.70;75.40;;;;;;4976479;28;20050;-17
2022/12/14 02:09:11;;;;;;;28.00;14.40;;;3.70;75.40;;;;;;4974801;28;20019;-16
2022/12/14 02:11:43;;;;;;;28.35;16.73;;;3.70;75.40;;;;;;4976524;28;20041;-17
2022/12/14 02:14:09;;;;;;;30.88;18.38;;;3.70;75.40;;;;;;4976294;28;20517;-16
2022/12/14 02:16:36;;;;;;;26.80;16.08;;;3.60;75.40;;;;;;4976401;28;20022;-15
2022/12/14 02:19:02;;;;;;;33.50;18.00;;;3.60;75.40;;;;;;4976009;28;20498;-17
2022/12/14 02:21:40;;;;;;;25.60;15.20;;;3.60;75.50;;;;;;4976219;28;20063;-16
2022/12/14 02:24:36;;;;;;;26.80;14.95;;;3.50;75.50;;;;;;4976330;28;20046;-16
2022/12/14 02:27:14;;;;;;;26.95;17.15;;;3.50;75.70;;;;;;4975947;28;20455;-17
2022/12/14 02:30:13;;;;;;;29.38;16.25;;;3.50;75.70;;;;;;4976446;28;20031;-17
2022/12/14 02:32:57;;;;;;;28.98;17.02;;;3.40;75.60;;;;;;4976007;28;20031;-16
2022/12/14 02:35:29;;;;;;;;;;;3.40;75.80;;;;;;4976469;28;20027;-17
2022/12/14 02:38:07;;;;;;;31.05;15.40;;;3.40;75.80;;;;;;4976146;28;20271;-13
2022/12/14 02:40:49;;;;;;;30.70;16.50;;;3.40;75.80;;;;;;4975626;28;20043;-16
2022/12/14 02:43:50;;;;;;;26.20;15.82;;;3.40;75.80;;;;;;4974192;28;20521;-18
2022/12/14 02:46:31;;;;;;;29.02;17.35;;;3.40;75.80;;;;;;4973685;28;20085;-16
2022/12/14 02:49:25;;;;;;;25.58;14.77;;;3.40;75.80;;;;;;4973483;28;20023;-16
2022/12/14 02:52:19;;;;;;;31.58;17.08;;;3.40;75.90;;;;;;4973820;28;20035;-16
2022/12/14 02:54:54;;;;;;;27.10;14.77;;;3.30;75.90;;;;;;4973735;28;20466;-15
2022/12/14 02:57:28;;;;;;;28.55;16.27;;;3.30;75.90;;;;;;4973434;28;20479;-14
2022/12/14 02:59:58;;;;;;;25.70;14.88;;;3.30;76.00;;;;;;4973533;28;20113;-14
2022/12/14 03:02:25;;;;;;;24.17;13.40;;;3.30;76.00;;;;;;4973333;28;20114;-12
2022/12/14 03:04:51;;;;;;;28.88;15.75;;;3.30;76.00;;;;;;4973412;28;20069;-13
2022/12/14 03:07:43;;;;;;;23.50;14.40;;;3.30;76.20;;;;;;4972894;28;20491;-15
2022/12/14 03:10:20;;;;;;;23.23;13.60;;;3.30;76.20;;;;;;4973359;28;20035;-12
2022/12/14 03:13:09;;;;;;;26.63;15.43;;;3.30;76.30;;;;;;4973310;28;20034;-14
2022/12/14 03:15:38;;;;;;;25.08;15.00;;;3.30;76.50;;;;;;4915698;29;20043;-12
2022/12/14 03:18:07;;;;;;;29.35;16.20;;;3.30;76.50;;;;;;4915836;29;20508;-16
2022/12/14 03:20:36;;;;;;;26.50;15.45;;;3.40;76.40;;;;;;4915581;29;20145;-17
2022/12/14 03:23:21;;;;;;;23.25;14.30;;;3.40;76.30;;;;;;4906141;29;20036;-17
2022/12/14 03:25:54;;;;;;;25.10;15.27;;;3.40;76.40;;;;;;4896601;29;20497;-15
2022/12/14 03:28:29;;;;;;;23.55;15.40;;;3.40;76.30;;;;;;4896690;29;20145;-15
2022/12/14 03:31:03;;;;;;;27.35;15.45;;;3.40;76.30;;;;;;4896336;29;20465;-15
2022/12/14 03:33:30;;;;;;;;;;;3.30;76.30;;;;;;4897084;29;20064;-14
2022/12/14 03:36:29;;;;;;;26.17;14.10;;;3.30;76.30;;;;;;4896611;29;19935;-17
2022/12/14 03:38:59;;;;;;;28.58;16.20;;;3.40;76.40;;;;;;4896193;29;20029;-17
2022/12/14 03:41:37;;;;;;;28.85;15.05;;;3.40;76.40;;;;;;4896444;29;20116;-13
2022/12/14 03:44:23;;;;;;;21.48;13.85;;;3.40;76.30;;;;;;4896578;29;20481;-16
2022/12/14 03:47:19;;;;;;;24.02;13.80;;;3.30;76.40;;;;;;4896349;29;20107;-15
2022/12/14 03:49:59;;;;;;;23.20;13.88;;;3.30;76.40;;;;;;4896246;29;20036;-17
2022/12/14 03:52:33;;;;;;;25.52;15.15;;;3.30;76.50;;;;;;4926932;28;20110;-17
2022/12/14 03:55:08;;;;;;;21.67;12.52;;;3.30;76.50;;;;;;4974241;28;20035;-13
2022/12/14 03:57:37;;;;;;;27.05;14.82;;;3.30;76.50;;;;;;4974800;28;20443;-16
2022/12/14 04:00:08;;;;;;;22.67;14.18;;;3.40;76.60;;;;;;4974394;28;20023;-13
2022/12/14 04:02:48;;;;;;;24.33;14.48;;;3.40;76.50;;;;;;4974609;28;20062;-12
2022/12/14 04:05:30;;;;;;;25.30;14.45;;;3.40;76.50;;;;;;4974260;28;20137;-13
2022/12/14 04:08:13;;;;;;;24.23;14.55;;;3.40;76.50;;;;;;4974274;28;20086;-13
2022/12/14 04:19:39;;;;;;;27.13;15.88;;;3.40;76.50;;;;;;4974440;28;20173;-15
2022/12/14 04:22:17;;;;;;;25.77;14.23;;;3.50;76.40;;;;;;4974466;28;20035;-17
2022/12/14 04:29:54;;;;;;;27.67;15.13;;;3.50;76.30;;;;;;4974161;28;20041;-14
2022/12/14 04:31:04;;;;;;;23.83;14.13;;;3.60;76.30;;;;;;4974013;28;20042;-17
2022/12/14 04:33:48;;;;;;;23.90;14.00;;;3.60;76.20;;;;;;4974737;28;20404;-15
2022/12/14 04:36:21;;;;;;;23.80;14.32;;;3.60;76.20;;;;;;4974273;28;20110;-17
2022/12/14 04:38:53;;;;;;;29.50;15.90;;;3.60;76.10;;;;;;4973818;28;20042;-17
2022/12/14 04:41:23;;;;;;;24.90;13.95;;;3.60;76.10;;;;;;4973828;28;20038;-16
2022/12/14 04:43:53;;;;;;;23.48;14.48;;;3.60;76.10;;;;;;4973777;28;20082;-16
2022/12/14 04:46:24;;;;;;;22.00;13.77;;;3.60;76.10;;;;;;4972588;28;20026;-15
2022/12/14 04:48:57;;;;;;;21.73;14.15;;;3.60;76.10;;;;;;4973661;28;20031;-15
2022/12/14 04:51:44;;;;;;;26.48;14.88;;;3.70;76.10;;;;;;4973968;28;20029;-15
2022/12/14 04:54:18;;;;;;;30.50;15.52;;;3.60;76.10;;;;;;4974138;28;20081;-15
2022/12/14 04:57:01;;;;;;;32.53;16.75;;;3.70;76.10;;;;;;4973855;28;20031;-14
2022/12/14 04:59:28;;;;;;;31.73;16.53;;;3.70;76.00;;;;;;4974081;28;20108;-16
2022/12/14 05:02:09;;;;;;;32.17;17.42;;;3.60;76.00;;;;;;4974010;28;20277;-17
2022/12/14 05:04:53;;;;;;;32.78;16.45;;;3.70;76.00;;;;;;4974451;28;20039;-16
2022/12/14 05:07:34;;;;;;;28.27;16.13;;;3.70;76.00;;;;;;4977448;28;20058;-14
2022/12/14 05:10:13;;;;;;;24.17;15.18;;;3.70;75.90;;;;;;4977762;28;20034;-13
2022/12/14 05:12:42;;;;;;;31.73;16.63;;;3.70;76.00;;;;;;4977461;28;20027;-14
2022/12/14 05:15:20;;;;;;;26.88;14.95;;;3.70;75.90;;;;;;4977212;28;20023;-15
2022/12/14 05:17:46;;;;;;;21.33;13.27;;;3.60;75.80;;;;;;4977694;28;20035;-15
2022/12/14 05:20:16;;;;;;;22.35;12.60;;;3.60;75.80;;;;;;4977299;28;20035;-16
2022/12/14 05:22:42;;;;;;;25.50;14.98;;;3.60;76.00;;;;;;4977150;28;20049;-16
2022/12/14 05:25:08;;;;;;;23.05;13.77;;;3.50;76.00;;;;;;4976923;28;20495;-16
2022/12/14 05:27:34;;;;;;;26.20;14.50;;;3.60;76.10;;;;;;4977530;28;20054;-16
2022/12/14 05:30:00;;;;;;;23.42;14.15;;;3.50;76.20;;;;;;4977257;28;20442;-16
2022/12/14 05:32:28;;;;;;;25.17;14.10;;;3.50;76.30;;;;;;4977150;28;20070;-17
2022/12/14 05:34:54;;;;;;;26.08;15.00;;;3.50;76.20;;;;;;4977119;28;20041;-16
2022/12/14 05:37:20;;;;;;;23.30;13.88;;;3.50;76.10;;;;;;4975719;28;20097;-16
2022/12/14 05:39:46;;;;;;;24.65;14.18;;;3.50;76.10;;;;;;4975653;28;20430;-17
2022/12/14 05:42:12;;;;;;;26.63;15.23;;;3.40;76.10;;;;;;4976890;28;20454;-16
2022/12/14 05:44:38;;;;;;;18.42;11.70;;;3.40;76.30;;;;;;4976768;28;20027;-15
2022/12/14 05:47:04;;;;;;;23.42;12.70;;;3.40;76.40;;;;;;4976538;28;20026;-17
2022/12/14 05:49:30;;;;;;;21.85;13.07;;;3.40;76.50;;;;;;4977464;28;20026;-16
2022/12/14 05:51:56;;;;;;;25.17;13.13;;;3.40;76.70;;;;;;4977022;28;20085;-15
2022/12/14 05:54:22;;;;;;;21.40;13.88;;;3.50;76.70;;;;;;4976553;28;20118;-17
2022/12/14 05:56:48;;;;;;;23.80;14.48;;;3.40;76.80;;;;;;4976499;28;20102;-17
2022/12/14 05:59:15;;;;;;;24.42;13.90;;;3.50;76.70;;;;;;4976968;28;20123;-16
2022/12/14 06:01:43;;;;;;;20.92;12.57;;;3.50;76.70;;;;;;4976875;28;20035;-16
2022/12/14 06:04:13;;;;;;;23.13;13.23;;;3.50;76.50;;;;;;4976752;28;20031;-15
2022/12/14 06:06:38;;;;;;;27.10;15.68;;;3.50;76.50;;;;;;4976182;28;20100;-15
2022/12/14 06:09:06;;;;;;;19.73;12.38;;;3.50;76.40;;;;;;4976190;28;20034;-14
2022/12/14 06:11:37;;;;;;;26.27;15.68;;;3.50;76.40;;;;;;4976449;28;20540;-16
2022/12/14 06:14:03;;;;;;;25.73;15.63;;;3.50;76.40;;;;;;4976332;28;20030;-17
2022/12/14 06:16:29;;;;;;;25.48;15.07;;;3.50;76.30;;;;;;4975172;28;20042;-17
2022/12/14 06:18:56;;;;;;;21.88;13.32;;;3.50;76.30;;;;;;4976098;28;20031;-15
2022/12/14 06:21:25;;;;;;;24.17;14.38;;;3.50;76.30;;;;;;4976760;28;20038;-15
2022/12/14 06:23:51;;;;;;;25.10;13.82;;;3.50;76.40;;;;;;4976361;28;20423;-14
2022/12/14 06:26:17;;;;;;;28.17;15.85;;;3.40;76.40;;;;;;4976165;28;20094;-13
2022/12/14 06:28:43;;;;;;;28.55;15.38;;;3.50;76.40;;;;;;4976740;28;20098;-15
2022/12/14 06:31:24;;;;;;;26.17;14.82;;;3.50;76.30;;;;;;4975767;28;20030;-14
2022/12/14 06:33:52;;;;;;;27.33;11.48;;;3.40;76.30;;;;;;4976223;28;20471;-15
2022/12/14 06:36:20;;;;;;;21.13;12.93;;;3.40;76.50;;;;;;4976507;28;20055;-14
2022/12/14 06:38:46;;;;;;;22.35;12.70;;;3.40;76.50;;;;;;4975673;28;20033;-15
2022/12/14 06:41:12;;;;;;;21.25;13.77;;;3.40;76.50;;;;;;4975913;28;20026;-15
2022/12/14 06:43:38;;;;;;;25.77;14.13;;;3.50;76.40;;;;;;4975806;28;20029;-14
2022/12/14 06:46:12;;;;;;;25.10;15.55;;;3.50;76.40;;;;;;4975850;28;20129;-15
2022/12/14 06:48:38;;;;;;;32.10;17.05;;;3.50;76.40;;;;;;4975820;28;20110;-14
2022/12/14 06:51:05;;;;;;;27.33;16.27;;;3.50;76.40;;;;;;4975415;28;20062;-15
2022/12/14 06:53:31;;;;;;;26.58;15.55;;;3.40;76.30;;;;;;4975948;28;20031;-13
2022/12/14 06:56:12;;;;;;;23.83;14.07;;;3.40;76.40;;;;;;4975798;28;20031;-13
2022/12/14 06:58:38;;;;;;;28.27;14.40;;;3.40;76.60;;;;;;4975574;28;20085;-13
2022/12/14 07:01:09;;;;;;;25.25;14.32;;;3.50;76.70;;;;;;4975581;28;20030;-17
2022/12/14 07:03:36;;;;;;;29.80;16.98;;;3.50;76.60;;;;;;4974538;28;20030;-13
2022/12/14 07:06:03;;;;;;;27.27;17.05;;;3.50;76.60;;;;;;4975196;28;20084;-14
2022/12/14 07:08:30;;;;;;;35.35;20.83;;;3.50;76.70;;;;;;4974126;28;20027;-15
2022/12/14 07:10:59;;;;;;;39.25;20.63;;;3.60;76.70;;;;;;4975359;28;20046;-14
2022/12/14 07:13:25;;;;;;;33.03;19.35;;;3.50;76.70;;;;;;4975240;28;20038;-16
2022/12/14 07:15:52;;;;;;;28.08;17.77;;;3.60;76.70;;;;;;4975479;28;20022;-13
2022/12/14 07:18:19;;;;;;;32.13;18.95;;;3.60;76.60;;;;;;4975427;28;20131;-12
2022/12/14 07:21:01;;;;;;;30.35;17.33;;;3.60;76.70;;;;;;4975109;28;20495;-16
2022/12/14 07:23:29;;;;;;;29.40;16.95;;;3.60;76.90;;;;;;4975187;28;20027;-15
2022/12/14 07:26:07;;;;;;;31.30;18.33;;;3.60;76.80;;;;;;4974950;28;20042;-14
2022/12/14 07:28:35;;;;;;;33.70;19.23;;;3.70;76.80;;;;;;4974729;28;20387;-16
2022/12/14 07:31:02;;;;;;;28.80;15.77;;;3.70;76.70;;;;;;4974670;28;20088;-18
2022/12/14 07:33:28;;;;;;;37.25;20.20;;;3.70;76.70;;;;;;4975092;28;20026;-17
2022/12/14 07:36:05;;;;;;;33.55;18.13;;;3.70;76.80;;;;;;4975047;28;20062;-16
2022/12/14 07:38:33;;;;;;;36.50;19.65;;;3.70;76.80;;;;;;4974780;28;20395;-16
2022/12/14 07:41:04;;;;;;;35.92;18.92;;;3.70;76.90;;;;;;4973200;28;20038;-18
2022/12/14 07:43:31;;;;;;;36.85;19.25;;;3.70;76.90;;;;;;4975178;28;20031;-17
2022/12/14 07:46:06;;;;;;;33.13;18.20;;;3.70;77.00;;;;;;4974926;28;20498;-16
2022/12/14 07:48:32;;;;;;;28.63;17.75;;;3.70;77.00;;;;;;4974976;28;20114;-16
2022/12/14 07:51:06;;;;;;;35.15;19.83;;;3.70;77.10;;;;;;4974473;28;20063;-16
2022/12/14 07:53:33;;;;;;;36.95;20.17;;;3.80;77.10;;;;;;4974818;28;20027;-17
2022/12/14 07:56:03;;;;;;;35.20;18.92;;;3.80;77.10;;;;;;4974436;28;20383;-17
2022/12/14 07:58:31;;;;;;;34.45;18.50;;;3.80;77.10;;;;;;4974428;28;20035;-16
2022/12/14 08:01:21;;;;;;;39.05;20.10;;;3.80;77.30;;;;;;4974132;28;20027;-17
2022/12/14 08:03:59;;;;;;;40.47;20.15;;;3.70;77.30;;;;;;4974324;28;20027;-16
2022/12/14 08:06:27;;;;;;;31.83;17.63;;;3.80;77.40;;;;;;4974376;28;20069;-13
2022/12/14 08:08:56;;;;;;;36.70;19.25;;;3.80;77.50;;;;;;4972766;28;20527;-16
2022/12/14 08:11:22;;;;;;;36.88;20.25;;;3.80;77.50;;;;;;4974581;28;20023;-15
2022/12/14 08:14:10;;;;;;;35.90;18.20;;;3.90;77.60;;;;;;4972944;28;20030;-16
2022/12/14 08:16:36;;;;;;;40.67;20.60;;;3.90;77.50;;;;;;4974172;28;20034;-17
2022/12/14 08:19:03;;;;;;;41.92;20.48;;;3.90;77.50;;;;;;4973899;28;20482;-16
2022/12/14 08:21:29;;;;;;;32.40;18.20;;;3.90;77.50;;;;;;4974127;28;20033;-17
2022/12/14 08:23:56;;;;;;;34.17;19.00;;;4.00;77.50;;;;;;4974041;28;20041;-16
2022/12/14 08:26:23;;;;;;;47.72;24.50;;;4.00;77.50;;;;;;4974399;28;20428;-16
2022/12/14 08:28:49;;;;;;;72.25;38.00;;;4.00;77.50;;;;;;4972615;28;20035;-16
2022/12/14 08:31:18;;;;;;;47.45;28.00;;;4.10;77.40;;;;;;4974226;28;20084;-16
2022/12/14 08:33:45;;;;;;;44.10;22.73;;;4.10;77.40;;;;;;4972682;28;20035;-15
2022/12/14 08:36:12;;;;;;;42.22;21.15;;;4.00;77.40;;;;;;4973850;28;20027;-15
2022/12/14 08:38:39;;;;;;;82.95;44.67;;;4.00;77.50;;;;;;4973677;28;20027;-17
2022/12/14 08:41:11;;;;;;;56.05;29.15;;;4.10;77.50;;;;;;4973233;28;20058;-16
2022/12/14 08:43:37;;;;;;;44.35;23.80;;;4.10;77.60;;;;;;4974009;28;20147;-17
2022/12/14 08:46:03;;;;;;;36.63;20.55;;;4.10;77.50;;;;;;4973738;28;20035;-16
2022/12/14 08:48:30;;;;;;;40.67;21.20;;;4.10;77.50;;;;;;4973977;28;20056;-17
2022/12/14 08:51:04;;;;;;;33.22;18.88;;;4.20;77.60;;;;;;4973667;28;20043;-17
2022/12/14 08:53:30;;;;;;;40.38;20.13;;;4.20;77.50;;;;;;4973695;28;20372;-13
2022/12/14 08:55:55;;;;;;;34.28;19.70;;;4.30;77.40;;;;;;4973560;28;20046;-13
2022/12/14 08:58:21;;;;;;;32.63;19.70;;;4.40;77.30;;;;;;4973946;28;20033;-13
2022/12/14 09:00:47;;;;;;;35.83;19.55;;;4.40;77.20;;;;;;4973448;28;20587;-14
2022/12/14 09:03:13;;;;;;;32.78;18.35;;;4.40;77.10;;;;;;4972390;28;20031;-16
2022/12/14 09:05:39;;;;;;;36.92;19.85;;;4.50;77.10;;;;;;4973712;28;20027;-16
2022/12/14 09:08:04;;;;;;;34.42;20.20;;;4.60;77.00;;;;;;4973524;28;20050;-16
2022/12/14 09:10:30;;;;;;;33.75;19.52;;;4.60;76.80;;;;;;4972350;28;20077;-17
2022/12/14 09:12:58;;;;;;;36.80;20.92;;;4.60;76.70;;;;;;4973381;28;20019;-15
2022/12/14 09:15:24;;;;;;;34.22;19.85;;;4.60;76.50;;;;;;4973823;28;20380;-17
2022/12/14 09:17:50;;;;;;;32.00;18.58;;;4.70;76.50;;;;;;4973581;28;20475;-15
2022/12/14 09:20:17;;;;;;;36.33;19.85;;;4.70;76.50;;;;;;4973780;28;20030;-17
2022/12/14 09:22:44;;;;;;;31.02;18.48;;;4.80;76.50;;;;;;4973527;28;20031;-16
2022/12/14 09:25:10;;;;;;;30.85;17.38;;;4.80;76.40;;;;;;4973028;28;20034;-16
2022/12/14 09:27:36;;;;;;;53.13;17.92;;;4.90;76.10;;;;;;4973717;28;20023;-17
2022/12/14 09:30:02;;;;;;;48.00;17.98;;;5.00;76.10;;;;;;4973396;28;20035;-17
2022/12/14 09:32:29;;;;;;;34.50;18.15;;;5.20;76.10;;;;;;4973268;28;20031;-16
2022/12/14 09:34:54;;;;;;;31.90;18.85;;;5.40;75.50;;;;;;4973523;28;20050;-18
2022/12/14 09:37:21;;;;;;;34.80;19.05;;;5.50;75.10;;;;;;4973288;28;20028;-17
2022/12/14 09:39:47;;;;;;;30.13;18.10;;;5.60;74.90;;;;;;4973641;28;20051;-17
2022/12/14 09:42:43;;;;;;;43.40;19.90;;;5.70;74.60;;;;;;4973430;28;20110;-16
2022/12/14 09:45:09;;;;;;;33.13;18.85;;;5.70;74.40;;;;;;4973055;28;20070;-15
2022/12/14 09:47:42;;;;;;;30.67;17.65;;;5.80;74.20;;;;;;4973544;28;20031;-16
2022/12/14 09:50:16;;;;;;;32.28;19.20;;;5.70;74.30;;;;;;4973363;28;20035;-16
2022/12/14 09:52:52;;;;;;;36.83;20.08;;;5.70;74.30;;;;;;4976790;28;20042;-17
2022/12/14 09:55:25;;;;;;;33.80;19.55;;;5.80;73.80;;;;;;4976605;28;20521;-15
2022/12/14 09:58:19;;;;;;;45.08;18.77;;;5.80;74.20;;;;;;4976923;28;20035;-16
2022/12/14 10:01:15;;;;;;;30.80;18.55;;;5.90;74.10;;;;;;4976504;28;20070;-17
2022/12/14 10:03:53;;;;;;;35.17;18.92;;;6.00;74.00;;;;;;4976634;28;20023;-17
2022/12/14 10:06:50;;;;;;;27.77;16.58;;;6.10;73.70;;;;;;4976391;28;20047;-16
2022/12/14 10:09:31;;;;;;;28.90;17.17;;;6.10;73.20;;;;;;4976354;28;20043;-12
2022/12/14 10:12:03;;;;;;;32.55;17.95;;;6.20;73.30;;;;;;4976382;28;20138;-16
2022/12/14 10:14:51;;;;;;;26.20;15.90;;;6.20;73.30;;;;;;4976361;28;20046;-16
2022/12/14 10:17:58;;;;;;;29.42;16.73;;;6.30;73.10;;;;;;4976604;28;20039;-16
2022/12/14 10:20:35;;;;;;;28.42;17.05;;;6.30;72.80;;;;;;4976269;28;20027;-12
2022/12/14 10:23:02;;;;;;;29.40;16.65;;;6.40;72.50;;;;;;4976003;28;20117;-16
2022/12/14 10:25:32;;;;;;;32.97;18.13;;;6.40;72.00;;;;;;4976208;28;20104;-17
2022/12/14 10:28:00;;;;;;;32.05;17.55;;;6.40;72.30;;;;;;4976121;28;20420;-17
2022/12/14 10:30:28;;;;;;;29.10;17.83;;;6.40;72.10;;;;;;4976507;28;20033;-18
2022/12/14 10:33:12;;;;;;;29.05;17.90;;;6.40;72.00;;;;;;4974597;28;20159;-16
2022/12/14 10:35:52;;;;;;;31.02;18.58;;;6.50;72.00;;;;;;4976072;28;20139;-17
2022/12/14 10:38:38;;;;;;;30.42;18.52;;;6.50;72.00;;;;;;4976236;28;20058;-13
2022/12/14 10:41:18;;;;;;;30.70;19.27;;;6.60;72.10;;;;;;4975967;28;20119;-17
2022/12/14 10:43:57;;;;;;;27.73;18.13;;;6.70;71.50;;;;;;4975851;28;20031;-16
2022/12/14 10:46:38;;;;;;;27.88;18.00;;;6.80;71.30;;;;;;4975916;28;20027;-16
2022/12/14 10:49:10;;;;;;;30.83;18.25;;;6.80;71.20;;;;;;4975849;28;20037;-15
2022/12/14 10:51:48;;;;;;;31.88;17.65;;;6.90;70.80;;;;;;4975935;28;20446;-16
2022/12/14 10:54:32;;;;;;;31.88;18.42;;;7.10;70.80;;;;;;4975569;28;20034;-16
2022/12/14 10:56:58;;;;;;;31.10;18.25;;;7.30;70.40;;;;;;4975525;28;20034;-13
2022/12/14 10:59:36;;;;;;;29.98;18.77;;;7.50;69.40;;;;;;4975780;28;20090;-15
2022/12/14 11:02:08;;;;;;;29.05;18.52;;;7.60;69.30;;;;;;4975028;28;20084;-15
2022/12/14 11:04:48;;;;;;;27.50;17.33;;;7.70;69.30;;;;;;4975727;28;20039;-16
2022/12/14 11:07:21;;;;;;;30.52;18.52;;;7.90;69.00;;;;;;4975329;28;20129;-13
2022/12/14 11:09:46;;;;;;;30.10;17.23;;;7.90;68.50;;;;;;4974027;28;20065;-14
2022/12/14 11:12:12;;;;;;;30.15;18.30;;;7.90;67.80;;;;;;4975542;28;20062;-14
2022/12/14 11:14:58;;;;;;;26.08;16.42;;;7.80;67.80;;;;;;4975178;28;20485;-17
2022/12/14 11:17:37;;;;;;;27.45;16.77;;;7.80;68.10;;;;;;4976297;28;20050;-17
2022/12/14 11:20:19;;;;;;;29.35;17.98;;;7.90;68.10;;;;;;4975150;28;20033;-15
2022/12/14 11:22:57;;;;;;;34.17;18.65;;;7.90;67.90;;;;;;4975557;28;20142;-15
2022/12/14 11:25:52;;;;;;;26.30;17.25;;;7.90;67.60;;;;;;4974958;28;20039;-16
2022/12/14 11:28:21;;;;;;;;;;;7.90;67.70;;;;;;4975278;28;20415;-15
2022/12/14 11:31:09;;;;;;;27.27;16.63;;;7.90;68.10;;;;;;4975081;28;19910;-18
2022/12/14 11:33:51;;;;;;;30.05;18.65;;;7.90;67.70;;;;;;4974866;28;20458;-14
2022/12/14 11:36:26;;;;;;;29.33;19.02;;;8.00;67.90;;;;;;4974903;28;20049;-14
2022/12/14 11:39:18;;;;;;;31.15;18.63;;;8.10;67.40;;;;;;4974156;28;20037;-14
2022/12/14 11:41:50;;;;;;;28.80;16.95;;;8.10;67.60;;;;;;4974625;28;20035;-15
2022/12/14 11:44:16;;;;;;;29.85;18.77;;;8.10;67.80;;;;;;4975000;28;20038;-17
2022/12/14 11:46:53;;;;;;;32.10;18.92;;;8.10;67.60;;;;;;4974644;28;20077;-15
2022/12/14 11:49:29;;;;;;;33.00;19.02;;;8.10;67.70;;;;;;4974617;28;20031;-16
2022/12/14 11:52:03;;;;;;;25.67;17.85;;;8.10;67.90;;;;;;4974983;28;20025;-18
2022/12/14 11:54:37;;;;;;;24.75;16.00;;;8.10;67.80;;;;;;4974781;28;20374;-17
2022/12/14 11:57:13;;;;;;;31.10;19.75;;;8.00;67.90;;;;;;4975164;28;20015;-14
2022/12/14 11:59:45;;;;;;;30.33;19.45;;;8.10;68.00;;;;;;4974567;28;20345;-15
2022/12/14 12:02:16;;;;;;;31.23;18.27;;;8.10;67.90;;;;;;4975228;28;20023;-17
2022/12/14 12:04:46;;;;;;;27.20;17.42;;;8.10;67.80;;;;;;4974401;28;20041;-17
2022/12/14 12:07:33;;;;;;;29.65;18.00;;;8.10;67.60;;;;;;4974176;28;20138;-17
2022/12/14 12:10:02;;;;;;;30.42;18.92;;;8.20;67.80;;;;;;4974229;28;20506;-15
2022/12/14 12:12:29;;;;;;;29.90;18.50;;;8.20;67.60;;;;;;4974251;28;20027;-16
2022/12/14 12:14:55;;;;;;;30.45;19.02;;;8.20;67.50;;;;;;4973986;28;20037;-15
2022/12/14 12:17:38;;;;;;;30.92;20.02;;;8.30;67.60;;;;;;4974213;28;20037;-14
2022/12/14 12:20:40;;;;;;;27.05;17.02;;;8.30;66.50;;;;;;4974516;28;20030;-15
2022/12/14 12:23:16;;;;;;;26.33;16.15;;;8.30;67.00;;;;;;4973120;28;20039;-16
2022/12/14 12:25:46;;;;;;;25.27;15.02;;;8.30;66.90;;;;;;4974252;28;20034;-17
2022/12/14 12:28:21;;;;;;;26.83;15.40;;;8.30;66.90;;;;;;4974019;28;20487;-17
2022/12/14 12:30:53;;;;;;;23.08;14.15;;;8.40;67.10;;;;;;4973929;28;20519;-16
2022/12/14 12:33:36;;;;;;;22.05;13.80;;;8.50;66.30;;;;;;4972740;28;20054;-16
2022/12/14 12:36:04;;;;;;;23.30;14.63;;;8.40;65.80;;;;;;4974364;28;20062;-16
2022/12/14 12:38:40;;;;;;;22.67;13.70;;;8.30;65.70;;;;;;4974223;28;20027;-15
2022/12/14 12:41:21;;;;;;;19.52;12.88;;;8.30;66.20;;;;;;4973780;28;20042;-15
2022/12/14 12:43:53;;;;;;;21.73;14.57;;;8.30;66.00;;;;;;4973932;28;20391;-16
2022/12/14 12:46:28;;;;;;;25.10;14.70;;;8.30;66.20;;;;;;4974148;28;20038;-15
2022/12/14 12:49:04;;;;;;;24.15;15.15;;;8.30;66.50;;;;;;4973961;28;20031;-15
2022/12/14 12:51:57;;;;;;;24.20;15.43;;;8.40;66.20;;;;;;4973878;28;20031;-15
2022/12/14 12:54:47;;;;;;;26.98;16.25;;;8.40;66.00;;;;;;4974042;28;20027;-15
2022/12/14 12:57:14;;;;;;;24.10;14.30;;;8.50;65.70;;;;;;4973544;28;20476;-15
2022/12/14 12:59:47;;;;;;;23.42;14.30;;;8.60;65.00;;;;;;4974037;28;20103;-16
2022/12/14 13:02:34;;;;;;;19.90;13.50;;;8.60;65.20;;;;;;4973756;28;20479;-17
2022/12/14 13:05:23;;;;;;;23.92;13.43;;;8.60;64.70;;;;;;4973549;28;20286;-17
2022/12/14 13:07:57;;;;;;;21.98;13.73;;;8.60;65.20;;;;;;4973564;28;20091;-16
2022/12/14 13:10:31;;;;;;;21.20;13.18;;;8.60;65.00;;;;;;4974048;28;20526;-17
2022/12/14 13:12:56;;;;;;;;;;;8.60;65.20;;;;;;4973523;28;20022;-16
2022/12/14 13:15:30;;;;;;;19.08;12.52;;;8.60;65.00;;;;;;4973594;28;20009;-16
2022/12/14 13:18:04;;;;;;;29.85;14.07;;;8.70;65.10;;;;;;4973814;28;20097;-17